Amherst, Wisconsin
Current Conditions -  °F | °C
As of 6:35 PM on Friday 31 Oct 2014 (Local Time) from KSTE Reporting Station
Clear Clear  
Wind Chill: 24°   Ceiling: Unl
Heat Index: 30°   Visibility: 10mi
Dew Point: 17°   Wind: 6mph
Humidity: 57%   Direction: 350°N
Pressure: 30.43"   Gusts: NA
Location:  44.45°N, 89.28°W
Report Text: KSTE 312335Z AUTO 35005KT 10SM CLR M01/M08 A3043 RMK AO2 T10101085
Loading
Personal Weather Stations






























Interactive Weather Map
Tropical Storm Tracking
New forecast layout! Learn more

10-Day Weather Forecast

Advertisements
Track Severe Weather on mobile